sensor_id;sensor_type;location;lat;lon;timestamp;P1;durP1;ratioP1;P2;durP2;ratioP2
41887;SDS011;63122;52.424;13.458;2023-04-15T00:05:37;40.43;;;24.83;;
41887;SDS011;63122;52.424;13.458;2023-04-15T00:08:16;38.93;;;24.63;;
41887;SDS011;63122;52.424;13.458;2023-04-15T00:10:16;36.63;;;24.10;;
41887;SDS011;63122;52.424;13.458;2023-04-15T00:12:13;38.10;;;24.20;;
41887;SDS011;63122;52.424;13.458;2023-04-15T00:14:14;42.73;;;24.63;;
41887;SDS011;63122;52.424;13.458;2023-04-15T00:16:15;43.50;;;25.27;;
41887;SDS011;63122;52.424;13.458;2023-04-15T00:18:38;42.27;;;26.20;;
41887;SDS011;63122;52.424;13.458;2023-04-15T00:20:53;42.23;;;26.43;;
41887;SDS011;63122;52.424;13.458;2023-04-15T00:22:53;43.50;;;26.07;;
41887;SDS011;63122;52.424;13.458;2023-04-15T00:25:08;45.63;;;26.83;;
41887;SDS011;63122;52.424;13.458;2023-04-15T00:30:13;41.93;;;24.63;;
41887;SDS011;63122;52.424;13.458;2023-04-15T00:39:29;44.27;;;26.37;;
41887;SDS011;63122;52.424;13.458;2023-04-15T00:41:34;43.40;;;27.03;;
41887;SDS011;63122;52.424;13.458;2023-04-15T00:43:31;47.40;;;27.67;;
41887;SDS011;63122;52.424;13.458;2023-04-15T00:45:49;47.47;;;28.10;;
41887;SDS011;63122;52.424;13.458;2023-04-15T00:48:02;49.77;;;27.83;;
41887;SDS011;63122;52.424;13.458;2023-04-15T00:50:05;45.13;;;26.53;;
41887;SDS011;63122;52.424;13.458;2023-04-15T00:52:03;50.07;;;28.30;;
41887;SDS011;63122;52.424;13.458;2023-04-15T00:54:02;50.90;;;28.00;;
41887;SDS011;63122;52.424;13.458;2023-04-15T00:56:02;51.07;;;29.10;;
41887;SDS011;63122;52.424;13.458;2023-04-15T00:58:02;51.53;;;28.80;;
41887;SDS011;63122;52.424;13.458;2023-04-15T01:00:00;52.80;;;30.20;;
41887;SDS011;63122;52.424;13.458;2023-04-15T01:01:59;51.00;;;29.57;;
41887;SDS011;63122;52.424;13.458;2023-04-15T01:03:58;54.47;;;29.63;;
41887;SDS011;63122;52.424;13.458;2023-04-15T01:06:08;52.23;;;29.23;;
41887;SDS011;63122;52.424;13.458;2023-04-15T01:08:21;52.57;;;29.17;;
41887;SDS011;63122;52.424;13.458;2023-04-15T01:12:48;52.67;;;30.20;;
41887;SDS011;63122;52.424;13.458;2023-04-15T01:14:46;61.00;;;31.60;;
41887;SDS011;63122;52.424;13.458;2023-04-15T01:16:48;58.83;;;31.23;;
41887;SDS011;63122;52.424;13.458;2023-04-15T01:18:53;54.53;;;30.50;;
41887;SDS011;63122;52.424;13.458;2023-04-15T01:20:57;54.20;;;30.07;;
41887;SDS011;63122;52.424;13.458;2023-04-15T01:23:13;51.90;;;29.33;;
41887;SDS011;63122;52.424;13.458;2023-04-15T01:25:16;58.07;;;30.27;;
41887;SDS011;63122;52.424;13.458;2023-04-15T01:27:16;56.73;;;31.03;;
41887;SDS011;63122;52.424;13.458;2023-04-15T01:29:14;53.10;;;28.83;;
41887;SDS011;63122;52.424;13.458;2023-04-15T01:31:13;54.83;;;30.50;;
41887;SDS011;63122;52.424;13.458;2023-04-15T01:33:14;56.07;;;31.43;;
41887;SDS011;63122;52.424;13.458;2023-04-15T01:35:10;58.73;;;31.17;;
41887;SDS011;63122;52.424;13.458;2023-04-15T01:37:06;55.07;;;30.27;;
41887;SDS011;63122;52.424;13.458;2023-04-15T01:39:04;57.50;;;31.13;;
41887;SDS011;63122;52.424;13.458;2023-04-15T01:41:02;56.33;;;31.97;;
41887;SDS011;63122;52.424;13.458;2023-04-15T01:43:04;56.70;;;31.73;;
41887;SDS011;63122;52.424;13.458;2023-04-15T01:45:03;60.03;;;30.27;;
41887;SDS011;63122;52.424;13.458;2023-04-15T01:47:02;58.67;;;30.90;;
41887;SDS011;63122;52.424;13.458;2023-04-15T01:48:58;56.47;;;30.80;;
41887;SDS011;63122;52.424;13.458;2023-04-15T01:51:28;61.50;;;31.10;;
41887;SDS011;63122;52.424;13.458;2023-04-15T01:53:18;68.30;;;38.47;;
41887;SDS011;63122;52.424;13.458;2023-04-15T01:55:22;66.63;;;35.53;;
41887;SDS011;63122;52.424;13.458;2023-04-15T01:57:29;69.27;;;35.20;;
41887;SDS011;63122;52.424;13.458;2023-04-15T02:00:10;66.20;;;35.20;;
41887;SDS011;63122;52.424;13.458;2023-04-15T02:02:36;72.20;;;39.13;;
41887;SDS011;63122;52.424;13.458;2023-04-15T02:04:49;77.33;;;41.80;;
41887;SDS011;63122;52.424;13.458;2023-04-15T02:07:11;71.70;;;38.77;;
41887;SDS011;63122;52.424;13.458;2023-04-15T02:09:48;59.60;;;31.33;;
41887;SDS011;63122;52.424;13.458;2023-04-15T02:11:44;62.53;;;31.53;;
41887;SDS011;63122;52.424;13.458;2023-04-15T02:13:42;66.10;;;32.53;;
41887;SDS011;63122;52.424;13.458;2023-04-15T02:16:27;61.90;;;31.83;;
41887;SDS011;63122;52.424;13.458;2023-04-15T02:18:30;62.27;;;32.13;;
41887;SDS011;63122;52.424;13.458;2023-04-15T02:20:43;62.70;;;33.07;;
41887;SDS011;63122;52.424;13.458;2023-04-15T02:22:52;60.60;;;33.07;;
41887;SDS011;63122;52.424;13.458;2023-04-15T02:24:49;63.87;;;34.07;;
41887;SDS011;63122;52.424;13.458;2023-04-15T02:26:48;65.67;;;32.20;;
41887;SDS011;63122;52.424;13.458;2023-04-15T02:28:47;65.80;;;32.83;;
41887;SDS011;63122;52.424;13.458;2023-04-15T02:30:46;67.77;;;32.67;;
41887;SDS011;63122;52.424;13.458;2023-04-15T02:32:49;62.73;;;32.37;;
41887;SDS011;63122;52.424;13.458;2023-04-15T02:34:53;59.40;;;31.97;;
41887;SDS011;63122;52.424;13.458;2023-04-15T02:36:49;62.20;;;31.53;;
41887;SDS011;63122;52.424;13.458;2023-04-15T02:38:55;59.27;;;31.97;;
41887;SDS011;63122;52.424;13.458;2023-04-15T02:41:11;60.23;;;30.40;;
41887;SDS011;63122;52.424;13.458;2023-04-15T02:43:21;59.80;;;30.00;;
41887;SDS011;63122;52.424;13.458;2023-04-15T02:45:16;56.73;;;31.33;;
41887;SDS011;63122;52.424;13.458;2023-04-15T02:47:17;64.60;;;34.50;;
41887;SDS011;63122;52.424;13.458;2023-04-15T02:49:15;64.13;;;33.43;;
41887;SDS011;63122;52.424;13.458;2023-04-15T02:51:20;66.43;;;32.73;;
41887;SDS011;63122;52.424;13.458;2023-04-15T02:53:16;66.27;;;33.43;;
41887;SDS011;63122;52.424;13.458;2023-04-15T02:55:13;63.27;;;33.20;;
41887;SDS011;63122;52.424;13.458;2023-04-15T02:57:09;60.37;;;31.70;;
41887;SDS011;63122;52.424;13.458;2023-04-15T02:59:04;61.93;;;31.77;;
41887;SDS011;63122;52.424;13.458;2023-04-15T03:01:01;60.23;;;31.63;;
41887;SDS011;63122;52.424;13.458;2023-04-15T03:03:01;61.27;;;31.60;;
41887;SDS011;63122;52.424;13.458;2023-04-15T03:05:13;62.27;;;31.60;;
41887;SDS011;63122;52.424;13.458;2023-04-15T03:07:09;65.47;;;32.03;;
41887;SDS011;63122;52.424;13.458;2023-04-15T03:09:04;66.33;;;31.87;;
41887;SDS011;63122;52.424;13.458;2023-04-15T03:11:09;67.47;;;32.93;;
41887;SDS011;63122;52.424;13.458;2023-04-15T03:13:06;57.33;;;29.80;;
41887;SDS011;63122;52.424;13.458;2023-04-15T03:15:02;55.70;;;29.50;;
41887;SDS011;63122;52.424;13.458;2023-04-15T03:17:00;61.30;;;30.83;;
41887;SDS011;63122;52.424;13.458;2023-04-15T03:18:55;58.13;;;30.50;;
41887;SDS011;63122;52.424;13.458;2023-04-15T03:20:54;59.73;;;29.70;;
41887;SDS011;63122;52.424;13.458;2023-04-15T03:22:49;57.27;;;30.57;;
41887;SDS011;63122;52.424;13.458;2023-04-15T03:24:44;56.43;;;29.40;;
41887;SDS011;63122;52.424;13.458;2023-04-15T03:26:40;59.97;;;29.37;;
41887;SDS011;63122;52.424;13.458;2023-04-15T03:28:35;58.20;;;30.13;;
41887;SDS011;63122;52.424;13.458;2023-04-15T03:30:30;53.77;;;28.80;;
41887;SDS011;63122;52.424;13.458;2023-04-15T03:32:25;59.67;;;29.50;;
41887;SDS011;63122;52.424;13.458;2023-04-15T03:34:21;58.30;;;30.87;;
41887;SDS011;63122;52.424;13.458;2023-04-15T03:36:19;62.40;;;30.80;;
41887;SDS011;63122;52.424;13.458;2023-04-15T03:38:15;54.43;;;28.20;;
41887;SDS011;63122;52.424;13.458;2023-04-15T03:40:10;54.90;;;28.97;;
41887;SDS011;63122;52.424;13.458;2023-04-15T03:42:06;53.00;;;28.23;;
41887;SDS011;63122;52.424;13.458;2023-04-15T03:44:01;55.77;;;29.00;;
41887;SDS011;63122;52.424;13.458;2023-04-15T03:45:57;54.93;;;28.23;;
41887;SDS011;63122;52.424;13.458;2023-04-15T03:47:52;50.07;;;27.40;;
41887;SDS011;63122;52.424;13.458;2023-04-15T03:50:02;54.23;;;27.40;;
41887;SDS011;63122;52.424;13.458;2023-04-15T03:52:00;57.17;;;28.73;;
41887;SDS011;63122;52.424;13.458;2023-04-15T03:53:56;49.60;;;27.43;;
41887;SDS011;63122;52.424;13.458;2023-04-15T03:55:52;51.63;;;27.57;;
41887;SDS011;63122;52.424;13.458;2023-04-15T03:57:48;53.60;;;27.00;;
41887;SDS011;63122;52.424;13.458;2023-04-15T03:59:43;53.77;;;27.80;;
41887;SDS011;63122;52.424;13.458;2023-04-15T04:01:39;52.83;;;27.03;;
41887;SDS011;63122;52.424;13.458;2023-04-15T04:03:34;47.73;;;26.40;;
41887;SDS011;63122;52.424;13.458;2023-04-15T04:05:32;52.83;;;28.87;;
41887;SDS011;63122;52.424;13.458;2023-04-15T04:07:32;54.90;;;31.97;;
41887;SDS011;63122;52.424;13.458;2023-04-15T04:09:27;45.33;;;25.50;;
41887;SDS011;63122;52.424;13.458;2023-04-15T04:11:22;48.73;;;26.00;;
41887;SDS011;63122;52.424;13.458;2023-04-15T04:13:19;49.37;;;26.13;;
41887;SDS011;63122;52.424;13.458;2023-04-15T04:15:14;54.43;;;27.13;;
41887;SDS011;63122;52.424;13.458;2023-04-15T04:17:09;41.97;;;25.10;;
41887;SDS011;63122;52.424;13.458;2023-04-15T04:19:05;45.97;;;24.87;;
41887;SDS011;63122;52.424;13.458;2023-04-15T04:21:01;42.87;;;25.63;;
41887;SDS011;63122;52.424;13.458;2023-04-15T04:22:58;44.43;;;26.23;;
41887;SDS011;63122;52.424;13.458;2023-04-15T04:24:54;44.93;;;24.60;;
41887;SDS011;63122;52.424;13.458;2023-04-15T04:26:52;44.40;;;24.67;;
41887;SDS011;63122;52.424;13.458;2023-04-15T04:28:48;44.77;;;25.33;;
41887;SDS011;63122;52.424;13.458;2023-04-15T04:30:43;47.80;;;25.53;;
41887;SDS011;63122;52.424;13.458;2023-04-15T04:32:39;49.40;;;25.73;;
41887;SDS011;63122;52.424;13.458;2023-04-15T04:34:34;46.13;;;25.50;;
41887;SDS011;63122;52.424;13.458;2023-04-15T04:36:30;45.57;;;25.63;;
41887;SDS011;63122;52.424;13.458;2023-04-15T04:38:30;43.77;;;25.17;;
41887;SDS011;63122;52.424;13.458;2023-04-15T04:40:25;43.37;;;25.37;;
41887;SDS011;63122;52.424;13.458;2023-04-15T04:42:20;44.30;;;24.10;;
41887;SDS011;63122;52.424;13.458;2023-04-15T04:44:16;42.57;;;24.43;;
41887;SDS011;63122;52.424;13.458;2023-04-15T04:46:11;41.30;;;23.87;;
41887;SDS011;63122;52.424;13.458;2023-04-15T04:48:07;40.80;;;23.30;;
41887;SDS011;63122;52.424;13.458;2023-04-15T04:50:02;45.17;;;23.57;;
41887;SDS011;63122;52.424;13.458;2023-04-15T04:51:58;41.97;;;23.73;;
41887;SDS011;63122;52.424;13.458;2023-04-15T04:53:56;41.30;;;23.30;;
41887;SDS011;63122;52.424;13.458;2023-04-15T04:55:54;39.00;;;23.47;;
41887;SDS011;63122;52.424;13.458;2023-04-15T04:57:49;40.77;;;23.73;;
41887;SDS011;63122;52.424;13.458;2023-04-15T04:59:45;42.67;;;23.20;;
41887;SDS011;63122;52.424;13.458;2023-04-15T05:01:40;42.10;;;22.97;;
41887;SDS011;63122;52.424;13.458;2023-04-15T05:03:35;37.30;;;23.00;;
41887;SDS011;63122;52.424;13.458;2023-04-15T05:05:31;38.60;;;23.10;;
41887;SDS011;63122;52.424;13.458;2023-04-15T05:07:26;36.30;;;22.17;;
41887;SDS011;63122;52.424;13.458;2023-04-15T05:09:24;39.03;;;22.17;;
41887;SDS011;63122;52.424;13.458;2023-04-15T05:11:19;42.93;;;23.13;;
41887;SDS011;63122;52.424;13.458;2023-04-15T05:13:14;40.00;;;22.70;;
41887;SDS011;63122;52.424;13.458;2023-04-15T05:15:10;37.10;;;22.03;;
41887;SDS011;63122;52.424;13.458;2023-04-15T05:17:05;37.17;;;21.97;;
41887;SDS011;63122;52.424;13.458;2023-04-15T05:19:02;35.07;;;21.57;;
41887;SDS011;63122;52.424;13.458;2023-04-15T05:20:58;32.90;;;21.47;;
41887;SDS011;63122;52.424;13.458;2023-04-15T05:22:54;39.03;;;21.17;;
41887;SDS011;63122;52.424;13.458;2023-04-15T05:24:51;38.87;;;21.43;;
41887;SDS011;63122;52.424;13.458;2023-04-15T05:26:47;49.43;;;22.23;;
41887;SDS011;63122;52.424;13.458;2023-04-15T05:28:42;37.27;;;22.00;;
41887;SDS011;63122;52.424;13.458;2023-04-15T05:30:37;36.03;;;22.53;;
41887;SDS011;63122;52.424;13.458;2023-04-15T05:32:33;36.73;;;21.87;;
41887;SDS011;63122;52.424;13.458;2023-04-15T05:34:28;33.50;;;21.30;;
41887;SDS011;63122;52.424;13.458;2023-04-15T05:36:24;37.80;;;22.73;;
41887;SDS011;63122;52.424;13.458;2023-04-15T05:38:19;36.37;;;22.13;;
41887;SDS011;63122;52.424;13.458;2023-04-15T05:40:17;41.77;;;22.20;;
41887;SDS011;63122;52.424;13.458;2023-04-15T05:42:13;32.57;;;20.53;;
41887;SDS011;63122;52.424;13.458;2023-04-15T05:44:08;32.50;;;20.57;;
41887;SDS011;63122;52.424;13.458;2023-04-15T05:46:04;32.00;;;21.17;;
41887;SDS011;63122;52.424;13.458;2023-04-15T05:47:59;29.30;;;19.10;;
41887;SDS011;63122;52.424;13.458;2023-04-15T05:49:54;31.87;;;19.47;;
41887;SDS011;63122;52.424;13.458;2023-04-15T05:51:49;28.83;;;18.17;;
41887;SDS011;63122;52.424;13.458;2023-04-15T05:53:45;29.00;;;18.47;;
41887;SDS011;63122;52.424;13.458;2023-04-15T05:55:43;27.50;;;17.30;;
41887;SDS011;63122;52.424;13.458;2023-04-15T05:57:38;26.40;;;17.63;;
41887;SDS011;63122;52.424;13.458;2023-04-15T05:59:33;27.23;;;17.80;;
41887;SDS011;63122;52.424;13.458;2023-04-15T06:01:29;27.03;;;17.40;;
41887;SDS011;63122;52.424;13.458;2023-04-15T06:03:25;27.33;;;17.93;;
41887;SDS011;63122;52.424;13.458;2023-04-15T06:05:20;23.63;;;16.93;;
41887;SDS011;63122;52.424;13.458;2023-04-15T06:07:15;32.97;;;17.70;;
41887;SDS011;63122;52.424;13.458;2023-04-15T06:09:11;25.30;;;17.83;;
41887;SDS011;63122;52.424;13.458;2023-04-15T06:11:08;31.03;;;17.80;;
41887;SDS011;63122;52.424;13.458;2023-04-15T06:13:04;88.27;;;50.17;;
41887;SDS011;63122;52.424;13.458;2023-04-15T06:14:59;40.03;;;24.87;;
41887;SDS011;63122;52.424;13.458;2023-04-15T06:16:55;26.27;;;16.70;;
41887;SDS011;63122;52.424;13.458;2023-04-15T06:18:50;23.43;;;16.10;;
41887;SDS011;63122;52.424;13.458;2023-04-15T06:20:46;23.00;;;16.27;;
41887;SDS011;63122;52.424;13.458;2023-04-15T06:22:41;26.10;;;15.70;;
41887;SDS011;63122;52.424;13.458;2023-04-15T06:24:37;23.50;;;15.43;;
41887;SDS011;63122;52.424;13.458;2023-04-15T06:26:37;25.93;;;16.57;;
41887;SDS011;63122;52.424;13.458;2023-04-15T06:28:33;28.13;;;15.77;;
41887;SDS011;63122;52.424;13.458;2023-04-15T06:30:28;22.43;;;15.27;;
41887;SDS011;63122;52.424;13.458;2023-04-15T06:32:23;21.63;;;14.60;;
41887;SDS011;63122;52.424;13.458;2023-04-15T06:34:19;26.73;;;15.10;;
41887;SDS011;63122;52.424;13.458;2023-04-15T06:36:14;22.87;;;15.40;;
41887;SDS011;63122;52.424;13.458;2023-04-15T06:38:09;24.17;;;14.77;;
41887;SDS011;63122;52.424;13.458;2023-04-15T06:40:06;18.50;;;13.90;;
41887;SDS011;63122;52.424;13.458;2023-04-15T06:42:05;21.17;;;14.73;;
41887;SDS011;63122;52.424;13.458;2023-04-15T06:44:00;18.60;;;13.83;;
41887;SDS011;63122;52.424;13.458;2023-04-15T06:45:55;18.70;;;13.00;;
41887;SDS011;63122;52.424;13.458;2023-04-15T06:47:51;18.73;;;12.83;;
41887;SDS011;63122;52.424;13.458;2023-04-15T06:49:46;17.80;;;12.70;;
41887;SDS011;63122;52.424;13.458;2023-04-15T06:51:42;21.43;;;13.63;;
41887;SDS011;63122;52.424;13.458;2023-04-15T06:53:37;17.70;;;12.30;;
41887;SDS011;63122;52.424;13.458;2023-04-15T06:55:35;18.17;;;11.77;;
41887;SDS011;63122;52.424;13.458;2023-04-15T06:57:33;20.23;;;13.03;;
41887;SDS011;63122;52.424;13.458;2023-04-15T06:59:29;20.00;;;12.40;;
41887;SDS011;63122;52.424;13.458;2023-04-15T07:01:24;19.03;;;12.10;;
41887;SDS011;63122;52.424;13.458;2023-04-15T07:03:19;20.70;;;12.97;;
41887;SDS011;63122;52.424;13.458;2023-04-15T07:05:15;93.93;;;49.03;;
41887;SDS011;63122;52.424;13.458;2023-04-15T07:07:11;73.60;;;41.77;;
41887;SDS011;63122;52.424;13.458;2023-04-15T07:09:06;19.93;;;14.17;;
41887;SDS011;63122;52.424;13.458;2023-04-15T07:11:02;22.83;;;13.30;;
41887;SDS011;63122;52.424;13.458;2023-04-15T07:12:59;16.07;;;11.47;;
41887;SDS011;63122;52.424;13.458;2023-04-15T07:14:55;17.87;;;12.00;;
41887;SDS011;63122;52.424;13.458;2023-04-15T07:16:50;19.60;;;12.80;;
41887;SDS011;63122;52.424;13.458;2023-04-15T07:18:47;24.30;;;12.13;;
41887;SDS011;63122;52.424;13.458;2023-04-15T07:20:43;14.23;;;10.97;;
41887;SDS011;63122;52.424;13.458;2023-04-15T07:22:38;17.23;;;11.50;;
41887;SDS011;63122;52.424;13.458;2023-04-15T07:24:34;19.67;;;12.23;;
41887;SDS011;63122;52.424;13.458;2023-04-15T07:26:29;16.93;;;11.47;;
41887;SDS011;63122;52.424;13.458;2023-04-15T07:28:27;16.53;;;11.63;;
41887;SDS011;63122;52.424;13.458;2023-04-15T07:30:23;16.33;;;11.30;;
41887;SDS011;63122;52.424;13.458;2023-04-15T07:32:18;17.23;;;11.97;;
41887;SDS011;63122;52.424;13.458;2023-04-15T07:34:13;24.83;;;14.87;;
41887;SDS011;63122;52.424;13.458;2023-04-15T07:36:08;16.07;;;12.17;;
41887;SDS011;63122;52.424;13.458;2023-04-15T07:38:04;16.53;;;11.77;;
41887;SDS011;63122;52.424;13.458;2023-04-15T07:39:59;17.10;;;12.47;;
41887;SDS011;63122;52.424;13.458;2023-04-15T07:41:55;16.70;;;12.57;;
41887;SDS011;63122;52.424;13.458;2023-04-15T07:43:54;18.90;;;12.20;;
41887;SDS011;63122;52.424;13.458;2023-04-15T07:45:49;16.87;;;11.77;;
41887;SDS011;63122;52.424;13.458;2023-04-15T07:47:44;22.20;;;12.70;;
41887;SDS011;63122;52.424;13.458;2023-04-15T07:49:40;24.13;;;13.90;;
41887;SDS011;63122;52.424;13.458;2023-04-15T07:51:35;17.90;;;13.20;;
41887;SDS011;63122;52.424;13.458;2023-04-15T07:53:31;15.90;;;12.87;;
41887;SDS011;63122;52.424;13.458;2023-04-15T07:55:26;16.50;;;12.80;;
41887;SDS011;63122;52.424;13.458;2023-04-15T07:57:21;18.17;;;12.70;;
41887;SDS011;63122;52.424;13.458;2023-04-15T07:59:19;18.20;;;12.83;;
41887;SDS011;63122;52.424;13.458;2023-04-15T08:01:15;17.83;;;12.00;;
41887;SDS011;63122;52.424;13.458;2023-04-15T08:03:12;16.37;;;12.23;;
41887;SDS011;63122;52.424;13.458;2023-04-15T08:05:08;15.90;;;12.77;;
41887;SDS011;63122;52.424;13.458;2023-04-15T08:07:04;17.30;;;13.03;;
41887;SDS011;63122;52.424;13.458;2023-04-15T08:08:59;15.27;;;12.27;;
41887;SDS011;63122;52.424;13.458;2023-04-15T08:10:55;17.27;;;12.87;;
41887;SDS011;63122;52.424;13.458;2023-04-15T08:12:50;17.80;;;13.10;;
41887;SDS011;63122;52.424;13.458;2023-04-15T08:14:48;19.67;;;12.67;;
41887;SDS011;63122;52.424;13.458;2023-04-15T08:16:44;15.90;;;11.93;;
41887;SDS011;63122;52.424;13.458;2023-04-15T08:18:39;28.07;;;18.83;;
41887;SDS011;63122;52.424;13.458;2023-04-15T08:20:34;65.20;;;36.43;;
41887;SDS011;63122;52.424;13.458;2023-04-15T08:22:29;17.83;;;13.37;;
41887;SDS011;63122;52.424;13.458;2023-04-15T08:24:25;20.37;;;12.10;;
41887;SDS011;63122;52.424;13.458;2023-04-15T08:26:21;18.37;;;12.37;;
41887;SDS011;63122;52.424;13.458;2023-04-15T08:28:17;17.70;;;12.53;;
41887;SDS011;63122;52.424;13.458;2023-04-15T08:30:14;26.83;;;17.87;;
41887;SDS011;63122;52.424;13.458;2023-04-15T08:32:10;21.80;;;15.40;;
41887;SDS011;63122;52.424;13.458;2023-04-15T08:34:06;19.60;;;13.00;;
41887;SDS011;63122;52.424;13.458;2023-04-15T08:36:01;18.60;;;12.47;;
41887;SDS011;63122;52.424;13.458;2023-04-15T08:37:57;18.07;;;12.80;;
41887;SDS011;63122;52.424;13.458;2023-04-15T08:39:52;18.33;;;12.93;;
41887;SDS011;63122;52.424;13.458;2023-04-15T08:41:50;17.77;;;13.07;;
41887;SDS011;63122;52.424;13.458;2023-04-15T08:43:53;16.77;;;12.80;;
41887;SDS011;63122;52.424;13.458;2023-04-15T08:45:54;18.00;;;13.23;;
41887;SDS011;63122;52.424;13.458;2023-04-15T08:47:51;17.17;;;13.07;;
41887;SDS011;63122;52.424;13.458;2023-04-15T08:49:50;19.00;;;13.67;;
41887;SDS011;63122;52.424;13.458;2023-04-15T08:51:49;20.13;;;13.53;;
41887;SDS011;63122;52.424;13.458;2023-04-15T08:53:44;19.87;;;12.80;;
41887;SDS011;63122;52.424;13.458;2023-04-15T08:55:43;21.07;;;13.07;;
41887;SDS011;63122;52.424;13.458;2023-04-15T08:57:39;17.03;;;13.17;;
41887;SDS011;63122;52.424;13.458;2023-04-15T08:59:36;50.07;;;29.70;;
41887;SDS011;63122;52.424;13.458;2023-04-15T09:01:33;18.47;;;13.70;;
41887;SDS011;63122;52.424;13.458;2023-04-15T09:03:31;17.60;;;13.13;;
41887;SDS011;63122;52.424;13.458;2023-04-15T09:05:30;19.87;;;14.30;;
41887;SDS011;63122;52.424;13.458;2023-04-15T09:07:26;21.83;;;14.43;;
41887;SDS011;63122;52.424;13.458;2023-04-15T09:09:21;17.97;;;12.70;;
41887;SDS011;63122;52.424;13.458;2023-04-15T09:11:17;20.47;;;12.53;;
41887;SDS011;63122;52.424;13.458;2023-04-15T09:13:12;18.80;;;13.93;;
41887;SDS011;63122;52.424;13.458;2023-04-15T09:15:10;18.77;;;13.60;;
41887;SDS011;63122;52.424;13.458;2023-04-15T09:17:09;21.63;;;14.30;;
41887;SDS011;63122;52.424;13.458;2023-04-15T09:19:13;19.43;;;13.43;;
41887;SDS011;63122;52.424;13.458;2023-04-15T09:21:15;16.57;;;12.63;;
41887;SDS011;63122;52.424;13.458;2023-04-15T09:23:12;15.63;;;12.67;;
41887;SDS011;63122;52.424;13.458;2023-04-15T09:27:26;16.67;;;13.13;;
41887;SDS011;63122;52.424;13.458;2023-04-15T09:29:23;18.30;;;12.97;;
41887;SDS011;63122;52.424;13.458;2023-04-15T09:31:20;17.20;;;12.87;;
41887;SDS011;63122;52.424;13.458;2023-04-15T09:33:26;22.90;;;13.40;;
41887;SDS011;63122;52.424;13.458;2023-04-15T09:35:23;22.70;;;14.53;;
41887;SDS011;63122;52.424;13.458;2023-04-15T09:37:21;22.10;;;14.63;;
41887;SDS011;63122;52.424;13.458;2023-04-15T09:39:43;18.20;;;13.43;;
41887;SDS011;63122;52.424;13.458;2023-04-15T09:41:40;22.83;;;14.83;;
41887;SDS011;63122;52.424;13.458;2023-04-15T09:43:36;18.03;;;14.13;;
41887;SDS011;63122;52.424;13.458;2023-04-15T09:45:33;17.33;;;14.13;;
41887;SDS011;63122;52.424;13.458;2023-04-15T09:47:30;18.60;;;13.83;;
41887;SDS011;63122;52.424;13.458;2023-04-15T09:49:28;15.03;;;12.70;;
41887;SDS011;63122;52.424;13.458;2023-04-15T09:51:32;19.90;;;13.40;;
41887;SDS011;63122;52.424;13.458;2023-04-15T09:53:28;23.67;;;12.87;;
41887;SDS011;63122;52.424;13.458;2023-04-15T09:55:26;27.53;;;19.77;;
41887;SDS011;63122;52.424;13.458;2023-04-15T09:57:32;18.63;;;14.20;;
41887;SDS011;63122;52.424;13.458;2023-04-15T09:59:29;16.67;;;13.27;;
41887;SDS011;63122;52.424;13.458;2023-04-15T10:01:24;16.90;;;13.13;;
41887;SDS011;63122;52.424;13.458;2023-04-15T10:03:20;16.43;;;12.57;;
41887;SDS011;63122;52.424;13.458;2023-04-15T10:05:19;14.70;;;12.30;;
41887;SDS011;63122;52.424;13.458;2023-04-15T10:07:15;17.10;;;12.83;;
41887;SDS011;63122;52.424;13.458;2023-04-15T10:09:11;16.77;;;12.83;;
41887;SDS011;63122;52.424;13.458;2023-04-15T10:11:07;15.43;;;12.67;;
41887;SDS011;63122;52.424;13.458;2023-04-15T10:13:02;17.03;;;12.80;;
41887;SDS011;63122;52.424;13.458;2023-04-15T10:15:00;18.20;;;12.13;;
41887;SDS011;63122;52.424;13.458;2023-04-15T10:16:59;15.67;;;12.27;;
41887;SDS011;63122;52.424;13.458;2023-04-15T10:18:56;17.50;;;12.50;;
41887;SDS011;63122;52.424;13.458;2023-04-15T10:20:54;15.60;;;11.83;;
41887;SDS011;63122;52.424;13.458;2023-04-15T10:22:50;13.70;;;11.30;;
41887;SDS011;63122;52.424;13.458;2023-04-15T10:24:47;18.80;;;12.50;;
41887;SDS011;63122;52.424;13.458;2023-04-15T10:26:43;14.10;;;11.50;;
41887;SDS011;63122;52.424;13.458;2023-04-15T10:28:39;14.23;;;11.93;;
41887;SDS011;63122;52.424;13.458;2023-04-15T10:30:34;19.33;;;11.80;;
41887;SDS011;63122;52.424;13.458;2023-04-15T10:32:30;16.27;;;12.20;;
41887;SDS011;63122;52.424;13.458;2023-04-15T10:34:26;15.37;;;11.73;;
41887;SDS011;63122;52.424;13.458;2023-04-15T10:36:26;14.00;;;11.83;;
41887;SDS011;63122;52.424;13.458;2023-04-15T10:38:30;16.23;;;11.47;;
41887;SDS011;63122;52.424;13.458;2023-04-15T10:40:27;13.37;;;11.20;;
41887;SDS011;63122;52.424;13.458;2023-04-15T10:42:32;14.83;;;11.50;;
41887;SDS011;63122;52.424;13.458;2023-04-15T10:44:28;17.60;;;14.30;;
41887;SDS011;63122;52.424;13.458;2023-04-15T10:46:33;15.83;;;13.10;;
41887;SDS011;63122;52.424;13.458;2023-04-15T10:48:31;24.93;;;17.70;;
41887;SDS011;63122;52.424;13.458;2023-04-15T10:50:27;16.10;;;12.77;;
41887;SDS011;63122;52.424;13.458;2023-04-15T10:52:28;17.33;;;12.93;;
41887;SDS011;63122;52.424;13.458;2023-04-15T10:54:29;16.20;;;12.97;;
41887;SDS011;63122;52.424;13.458;2023-04-15T10:56:30;20.67;;;14.23;;
41887;SDS011;63122;52.424;13.458;2023-04-15T10:58:26;16.33;;;12.67;;
41887;SDS011;63122;52.424;13.458;2023-04-15T11:00:36;15.43;;;11.97;;
41887;SDS011;63122;52.424;13.458;2023-04-15T11:02:41;15.43;;;12.53;;
41887;SDS011;63122;52.424;13.458;2023-04-15T11:04:51;15.77;;;11.47;;
41887;SDS011;63122;52.424;13.458;2023-04-15T11:06:50;15.57;;;11.90;;
41887;SDS011;63122;52.424;13.458;2023-04-15T11:09:03;14.37;;;11.50;;
41887;SDS011;63122;52.424;13.458;2023-04-15T11:11:00;13.43;;;10.73;;
41887;SDS011;63122;52.424;13.458;2023-04-15T11:12:56;14.33;;;11.57;;
41887;SDS011;63122;52.424;13.458;2023-04-15T11:14:53;14.20;;;11.40;;
41887;SDS011;63122;52.424;13.458;2023-04-15T11:16:48;13.67;;;10.83;;
41887;SDS011;63122;52.424;13.458;2023-04-15T11:18:52;14.23;;;11.07;;
41887;SDS011;63122;52.424;13.458;2023-04-15T11:20:48;13.23;;;11.20;;
41887;SDS011;63122;52.424;13.458;2023-04-15T11:22:46;16.30;;;11.17;;
41887;SDS011;63122;52.424;13.458;2023-04-15T11:24:48;16.83;;;11.00;;
41887;SDS011;63122;52.424;13.458;2023-04-15T11:26:44;12.50;;;10.57;;
41887;SDS011;63122;52.424;13.458;2023-04-15T11:28:40;14.33;;;11.10;;
41887;SDS011;63122;52.424;13.458;2023-04-15T11:30:36;14.97;;;11.37;;
41887;SDS011;63122;52.424;13.458;2023-04-15T11:32:32;15.97;;;12.63;;
41887;SDS011;63122;52.424;13.458;2023-04-15T11:34:27;14.10;;;11.17;;
41887;SDS011;63122;52.424;13.458;2023-04-15T11:36:25;14.43;;;11.57;;
41887;SDS011;63122;52.424;13.458;2023-04-15T11:38:23;17.80;;;13.57;;
41887;SDS011;63122;52.424;13.458;2023-04-15T11:40:24;13.97;;;12.03;;
41887;SDS011;63122;52.424;13.458;2023-04-15T11:42:20;16.57;;;12.20;;
41887;SDS011;63122;52.424;13.458;2023-04-15T11:44:25;14.17;;;11.27;;